Time;durP1;ratioP1;P1;durP2;ratioP2;P2;SDS_P1;SDS_P2;PMS_P1;PMS_P2;Temp;Humidity;BMP_temperature;BMP_pressure;BME280_temperature;BME280_humidity;BME280_pressure;Samples;Min_cycle;Max_cycle;Signal;HPM_P1;HPM_P2
2023/08/08 00:02:15;;;;;;;;;;;;;;;16.32;100.00;98022.25;5083107;28;20454;-78
2023/08/08 00:04:42;;;;;;;;;;;;;;;16.28;100.00;98018.56;5075045;28;20381;-78
2023/08/08 00:07:08;;;;;;;;;;;;;;;16.33;100.00;98018.47;5081294;28;19935;-78
2023/08/08 00:09:34;;;;;;;;;;;;;;;16.24;100.00;98014.88;5083286;28;19928;-78
2023/08/08 00:12:02;;;;;;;;;;;;;;;16.13;100.00;98012.34;5075256;28;19955;-77
2023/08/08 00:14:28;;;;;;;;;;;;;;;16.08;100.00;98012.44;5073476;28;20472;-77
2023/08/08 00:16:55;;;;;;;;;;;;;;;16.15;100.00;98018.22;5075178;28;20470;-79
2023/08/08 00:19:21;;;;;;;;;;;;;;;16.08;100.00;98020.53;5073346;28;19928;-77
2023/08/08 00:21:47;;;;;;;;;;;;;;;16.13;100.00;98014.22;5076907;28;20031;-78
2023/08/08 00:24:14;;;;;;;;;;;;;;;16.11;100.00;98014.53;5060217;28;19930;-79
2023/08/08 00:26:40;;;;;;;;;;;;;;;15.92;100.00;98019.19;5061176;28;19924;-78
2023/08/08 00:29:07;;;;;;;;;;;;;;;16.05;100.00;98013.03;5079200;28;19928;-79
2023/08/08 00:31:34;;;;;;;;;;;;;;;15.93;100.00;98004.63;5059529;28;19928;-77
2023/08/08 00:34:00;;;;;;;;;;;;;;;15.93;100.00;98004.63;5066728;28;20012;-78
2023/08/08 00:36:26;;;;;;;;;;;;;;;15.92;100.00;98007.59;5077213;28;19924;-78
2023/08/08 00:38:53;;;;;;;;;;;;;;;15.83;100.00;98018.25;5072461;28;20511;-79
2023/08/08 00:41:19;;;;;;;;;;;;;;;15.83;100.00;98010.16;5066556;28;20402;-78
2023/08/08 00:43:45;;;;;;;;;;;;;;;15.97;100.00;98000.22;5073535;28;20458;-78
2023/08/08 00:46:13;;;;;;;;;;;;;;;15.97;100.00;98002.91;5076674;28;20691;-79
2023/08/08 00:48:40;;;;;;;;;;;;;;;16.00;100.00;98001.56;5070430;28;20038;-78
2023/08/08 00:51:06;;;;;;;;;;;;;;;16.03;100.00;97999.03;5050199;28;19929;-78
2023/08/08 00:53:33;;;;;;;;;;;;;;;16.02;100.00;98002.03;5068327;28;19982;-78
2023/08/08 00:55:59;;;;;;;;;;;;;;;16.00;100.00;97999.63;5050542;28;19939;-79
2023/08/08 00:58:26;;;;;;;;;;;;;;;15.77;100.00;97997.88;5065780;28;20028;-80
2023/08/08 01:00:54;;;;;;;;;;;;;;;15.79;100.00;97993.00;5073629;28;19928;-78
2023/08/08 01:03:22;;;;;;;;;;;;;;;15.85;100.00;98001.78;5048853;28;19928;-78
2023/08/08 01:05:52;;;;;;;;;;;;;;;15.68;100.00;98006.91;5070972;28;19935;-77
2023/08/08 01:08:22;;;;;;;;;;;;;;;15.87;100.00;98005.00;5069493;28;19935;-78
2023/08/08 01:10:48;;;;;;;;;;;;;;;15.86;100.00;98006.06;5073194;28;19939;-78
2023/08/08 01:13:16;;;;;;;;;;;;;;;15.82;100.00;98002.38;5069573;28;19956;-78
2023/08/08 01:15:43;;;;;;;;;;;;;;;15.73;100.00;97998.75;5077203;28;19924;-78
2023/08/08 01:18:10;;;;;;;;;;;;;;;15.79;100.00;97994.88;5086341;28;20656;-77
2023/08/08 01:20:39;;;;;;;;;;;;;;;15.66;100.00;97997.22;5079490;28;19928;-77
2023/08/08 01:23:10;;;;;;;;;;;;;;;15.80;100.00;98005.38;5082349;28;20018;-78
2023/08/08 01:25:39;;;;;;;;;;;;;;;15.67;100.00;97989.97;5082551;28;19928;-78
2023/08/08 01:28:07;;;;;;;;;;;;;;;15.80;100.00;97988.41;5086669;28;20457;-77
2023/08/08 01:30:33;;;;;;;;;;;;;;;15.77;100.00;97995.19;5084891;28;19928;-78
2023/08/08 01:33:00;;;;;;;;;;;;;;;15.78;100.00;97985.22;5086679;28;19938;-77
2023/08/08 01:35:28;;;;;;;;;;;;;;;15.70;100.00;97994.75;5079319;28;20390;-77
2023/08/08 01:37:58;;;;;;;;;;;;;;;15.73;100.00;97996.84;5086144;28;19962;-78
2023/08/08 01:40:25;;;;;;;;;;;;;;;15.69;100.00;97995.84;5066544;28;20023;-77
2023/08/08 01:42:54;;;;;;;;;;;;;;;15.74;100.00;97992.28;5065939;28;19930;-78
2023/08/08 01:45:20;;;;;;;;;;;;;;;15.66;100.00;97993.72;5086806;28;19924;-77
2023/08/08 01:47:50;;;;;;;;;;;;;;;15.74;100.00;97984.19;5084624;28;20605;-77
2023/08/08 01:50:16;;;;;;;;;;;;;;;15.69;100.00;97981.59;5085753;28;19946;-77
2023/08/08 01:52:43;;;;;;;;;;;;;;;15.68;100.00;97994.25;5078681;28;20343;-79
2023/08/08 01:55:10;;;;;;;;;;;;;;;15.66;100.00;97991.03;5085884;28;19935;-78
2023/08/08 01:57:36;;;;;;;;;;;;;;;15.74;100.00;97982.31;5083188;28;19935;-78
2023/08/08 02:00:05;;;;;;;;;;;;;;;15.81;100.00;97979.25;5086047;28;19924;-79
2023/08/08 02:02:32;;;;;;;;;;;;;;;15.84;100.00;97982.16;5083461;28;19932;-78
2023/08/08 02:04:58;;;;;;;;;;;;;;;15.72;100.00;97967.56;5082046;28;19931;-77
2023/08/08 02:07:25;;;;;;;;;;;;;;;15.75;100.00;97981.22;5084184;28;20026;-78
2023/08/08 02:09:51;;;;;;;;;;;;;;;15.72;100.00;97975.63;5061021;28;20300;-78
2023/08/08 02:12:17;;;;;;;;;;;;;;;15.74;100.00;97973.44;5085281;28;20019;-78
2023/08/08 02:14:44;;;;;;;;;;;;;;;15.73;100.00;97972.63;5084222;28;20287;-79
2023/08/08 02:17:11;;;;;;;;;;;;;;;15.70;100.00;97978.59;5082684;28;19935;-78
2023/08/08 02:19:38;;;;;;;;;;;;;;;15.73;100.00;97983.41;5081153;28;19928;-78
2023/08/08 02:22:04;;;;;;;;;;;;;;;15.83;100.00;97980.53;5084884;28;20433;-78
2023/08/08 02:24:31;;;;;;;;;;;;;;;15.65;100.00;97992.16;5085860;28;19975;-78
2023/08/08 02:26:57;;;;;;;;;;;;;;;15.65;100.00;97986.78;5081481;28;19951;-77
2023/08/08 02:29:23;;;;;;;;;;;;;;;15.74;100.00;97979.63;5085786;28;19924;-77
2023/08/08 02:31:49;;;;;;;;;;;;;;;15.64;100.00;97974.38;5080449;28;19935;-78
2023/08/08 02:34:17;;;;;;;;;;;;;;;15.75;100.00;97975.84;5083000;28;19930;-77
2023/08/08 02:36:44;;;;;;;;;;;;;;;15.52;100.00;97984.81;5085610;28;19928;-79
2023/08/08 02:39:10;;;;;;;;;;;;;;;15.65;100.00;97976.00;5081937;28;20042;-78
2023/08/08 02:41:36;;;;;;;;;;;;;;;15.56;100.00;97969.69;5059174;28;20327;-78
2023/08/08 02:44:03;;;;;;;;;;;;;;;15.70;100.00;97975.91;5081074;28;20027;-77
2023/08/08 02:46:29;;;;;;;;;;;;;;;15.76;100.00;97971.22;5085362;28;19924;-77
2023/08/08 02:48:56;;;;;;;;;;;;;;;15.71;100.00;97966.75;5079855;28;19934;-77
2023/08/08 02:51:23;;;;;;;;;;;;;;;15.61;100.00;97959.63;5067277;28;19931;-77
2023/08/08 02:53:50;;;;;;;;;;;;;;;15.62;100.00;97953.16;5085177;28;19939;-78
2023/08/08 02:56:16;;;;;;;;;;;;;;;15.69;100.00;97949.28;5081671;28;19928;-77
2023/08/08 02:58:42;;;;;;;;;;;;;;;15.77;100.00;97957.50;5066301;28;20302;-77
2023/08/08 03:01:08;;;;;;;;;;;;;;;15.74;100.00;97963.47;5062561;28;19964;-77
2023/08/08 03:03:35;;;;;;;;;;;;;;;15.69;100.00;97960.06;5067133;28;19934;-77
2023/08/08 03:06:01;;;;;;;;;;;;;;;15.73;100.00;97956.47;5066914;28;19930;-78
2023/08/08 03:08:29;;;;;;;;;;;;;;;15.75;100.00;97958.88;5085013;28;20390;-76
2023/08/08 03:10:55;;;;;;;;;;;;;;;15.70;100.00;97969.72;5085202;28;19930;-78
2023/08/08 03:13:22;;;;;;;;;;;;;;;15.57;100.00;97963.19;5081092;28;19938;-78
2023/08/08 03:15:48;;;;;;;;;;;;;;;15.47;100.00;97968.72;5070171;28;19989;-78
2023/08/08 03:18:15;;;;;;;;;;;;;;;15.38;100.00;97968.56;5079760;28;19930;-77
2023/08/08 03:20:41;;;;;;;;;;;;;;;15.54;100.00;97972.66;5082975;28;20015;-78
2023/08/08 03:23:07;;;;;;;;;;;;;;;15.40;100.00;97977.16;5061244;28;19924;-77
2023/08/08 03:25:35;;;;;;;;;;;;;;;15.55;100.00;97971.56;5066446;28;20396;-78
2023/08/08 03:28:01;;;;;;;;;;;;;;;15.21;100.00;97964.78;5062373;28;19928;-78
2023/08/08 03:30:27;;;;;;;;;;;;;;;15.38;100.00;97962.41;5081815;28;19928;-78
2023/08/08 03:32:54;;;;;;;;;;;;;;;15.21;100.00;97962.91;5079568;28;19931;-78
2023/08/08 03:35:20;;;;;;;;;;;;;;;15.40;100.00;97954.84;5063638;28;20400;-78
2023/08/08 03:37:46;;;;;;;;;;;;;;;15.39;100.00;97961.28;5066469;28;19934;-79
2023/08/08 03:40:14;;;;;;;;;;;;;;;15.42;100.00;97949.94;5062597;28;19924;-77
2023/08/08 03:42:42;;;;;;;;;;;;;;;15.37;100.00;97947.34;5083898;28;19970;-77
2023/08/08 03:45:09;;;;;;;;;;;;;;;15.48;100.00;97955.00;5061899;28;20293;-77
2023/08/08 03:47:35;;;;;;;;;;;;;;;15.49;100.00;97961.97;5084103;28;20790;-77
2023/08/08 03:50:02;;;;;;;;;;;;;;;15.51;100.00;97956.28;5066369;28;19928;-78
2023/08/08 03:52:29;;;;;;;;;;;;;;;15.59;100.00;97961.81;5081351;28;19928;-78
2023/08/08 03:54:55;;;;;;;;;;;;;;;15.64;100.00;97969.00;5084513;28;20283;-78
2023/08/08 03:57:21;;;;;;;;;;;;;;;15.63;100.00;97968.19;5079522;28;19924;-80
2023/08/08 03:59:49;;;;;;;;;;;;;;;15.67;100.00;97957.66;5084587;28;20038;-79
2023/08/08 04:02:15;;;;;;;;;;;;;;;15.64;100.00;97958.25;5079461;28;19931;-78
2023/08/08 04:04:42;;;;;;;;;;;;;;;15.60;100.00;97959.91;5083252;28;20487;-78
2023/08/08 04:07:08;;;;;;;;;;;;;;;15.53;100.00;97962.19;5079154;28;19928;-79
2023/08/08 04:09:34;;;;;;;;;;;;;;;15.54;100.00;97958.41;5081439;28;19938;-78
2023/08/08 04:12:00;;;;;;;;;;;;;;;15.35;100.00;97960.31;5078185;28;19928;-77
2023/08/08 04:14:27;;;;;;;;;;;;;;;15.49;100.00;97956.59;5079411;28;19924;-79
2023/08/08 04:16:54;;;;;;;;;;;;;;;15.37;100.00;97964.28;5064894;28;19931;-78
2023/08/08 04:19:21;;;;;;;;;;;;;;;15.48;100.00;97973.84;5078631;28;20559;-78
2023/08/08 04:21:47;;;;;;;;;;;;;;;15.56;100.00;97975.06;5084193;28;20023;-78
2023/08/08 04:24:14;;;;;;;;;;;;;;;15.57;100.00;97979.34;5079205;28;19924;-79
2023/08/08 04:26:40;;;;;;;;;;;;;;;15.52;100.00;97982.13;5080591;28;19935;-78
2023/08/08 04:29:06;;;;;;;;;;;;;;;15.55;100.00;97981.53;5064524;28;19965;-77
2023/08/08 04:31:32;;;;;;;;;;;;;;;15.63;100.00;97972.78;5081420;28;20500;-79
2023/08/08 04:34:00;;;;;;;;;;;;;;;15.61;100.00;97974.97;5079535;28;20567;-77
2023/08/08 04:36:27;;;;;;;;;;;;;;;15.43;100.00;97973.88;5084595;28;19924;-77
2023/08/08 04:38:53;;;;;;;;;;;;;;;15.55;100.00;97976.16;5080656;28;19924;-79
2023/08/08 04:41:20;;;;;;;;;;;;;;;15.55;100.00;97973.47;5083706;28;20342;-78
2023/08/08 04:43:46;;;;;;;;;;;;;;;15.62;100.00;97984.66;5084106;28;20003;-79
2023/08/08 04:46:13;;;;;;;;;;;;;;;15.51;100.00;97985.91;5088345;28;20466;-78
2023/08/08 04:48:39;;;;;;;;;;;;;;;15.53;100.00;97989.13;5084456;28;19928;-78
2023/08/08 04:51:07;;;;;;;;;;;;;;;15.53;100.00;97986.44;5084606;28;19967;-78
2023/08/08 04:53:33;;;;;;;;;;;;;;;15.53;100.00;97986.44;5069834;28;19931;-78
2023/08/08 04:55:59;;;;;;;;;;;;;;;15.63;100.00;97986.25;5084669;28;20469;-77
2023/08/08 04:58:26;;;;;;;;;;;;;;;15.64;100.00;97987.84;5070176;28;20575;-78
2023/08/08 05:00:52;;;;;;;;;;;;;;;15.62;100.00;97988.16;5083856;28;19935;-78
2023/08/08 05:03:19;;;;;;;;;;;;;;;15.72;100.00;98003.31;5086173;28;19928;-78
2023/08/08 05:05:45;;;;;;;;;;;;;;;15.71;100.00;97990.97;5083271;28;19924;-79
2023/08/08 05:08:13;;;;;;;;;;;;;;;15.73;100.00;97994.16;5084656;28;19932;-78
2023/08/08 05:10:39;;;;;;;;;;;;;;;15.67;100.00;97992.66;5087926;28;19967;-78
2023/08/08 05:13:06;;;;;;;;;;;;;;;15.71;100.00;97988.28;5084258;28;19962;-79
2023/08/08 05:15:32;;;;;;;;;;;;;;;15.76;100.00;97993.56;5067337;28;19932;-78
2023/08/08 05:17:59;;;;;;;;;;;;;;;15.65;100.00;97981.38;5083104;28;20023;-78
2023/08/08 05:20:25;;;;;;;;;;;;;;;15.60;100.00;97993.00;5087143;28;19928;-78
2023/08/08 05:22:52;;;;;;;;;;;;;;;15.68;100.00;97996.94;5081753;28;19984;-77
2023/08/08 05:25:19;;;;;;;;;;;;;;;15.61;100.00;97997.31;5087558;28;19938;-78
2023/08/08 05:27:46;;;;;;;;;;;;;;;15.62;100.00;98000.81;5083316;28;19925;-77
2023/08/08 05:30:13;;;;;;;;;;;;;;;15.63;100.00;98002.41;5084016;28;19931;-77
2023/08/08 05:32:39;;;;;;;;;;;;;;;15.73;100.00;97994.16;5082368;28;19928;-77
2023/08/08 05:35:06;;;;;;;;;;;;;;;15.71;100.00;98000.94;5084908;28;19928;-77
2023/08/08 05:37:33;;;;;;;;;;;;;;;15.64;100.00;97990.53;5086879;28;19993;-77
2023/08/08 05:39:59;;;;;;;;;;;;;;;15.63;100.00;97999.72;5083735;28;19928;-77
2023/08/08 05:42:27;;;;;;;;;;;;;;;15.72;100.00;97995.25;5086492;28;19935;-78
2023/08/08 05:44:53;;;;;;;;;;;;;;;15.82;100.00;98000.47;5082653;28;19951;-78
2023/08/08 05:47:19;;;;;;;;;;;;;;;15.86;100.00;97998.81;5086699;28;19955;-78
2023/08/08 05:49:45;;;;;;;;;;;;;;;15.74;100.00;97998.47;5082050;28;19935;-78
2023/08/08 05:52:12;;;;;;;;;;;;;;;15.72;100.00;97995.25;5084094;28;19924;-78
2023/08/08 05:54:38;;;;;;;;;;;;;;;15.80;100.00;98002.69;5077892;28;19928;-78
2023/08/08 05:57:05;;;;;;;;;;;;;;;15.89;100.00;97992.84;5083649;28;19930;-78
2023/08/08 05:59:33;;;;;;;;;;;;;;;15.85;100.00;98007.97;5085572;28;20039;-78
2023/08/08 06:01:59;;;;;;;;;;;;;;;15.74;100.00;98001.16;5064674;28;19928;-78
2023/08/08 06:04:26;;;;;;;;;;;;;;;15.77;100.00;97994.38;5084822;28;19934;-78
2023/08/08 06:06:52;;;;;;;;;;;;;;;15.92;100.00;98002.22;5081889;28;19924;-78
2023/08/08 06:09:18;;;;;;;;;;;;;;;16.12;100.00;98007.25;5083983;28;19973;-78
2023/08/08 06:11:45;;;;;;;;;;;;;;;16.12;100.00;98002.66;5069006;28;20011;-77
2023/08/08 06:14:11;;;;;;;;;;;;;;;16.23;100.00;98002.47;5082953;28;19928;-78
2023/08/08 06:16:39;;;;;;;;;;;;;;;16.18;100.00;97998.78;5084190;28;19924;-78
2023/08/08 06:19:05;;;;;;;;;;;;;;;16.22;100.00;98001.69;5063762;28;20329;-77
2023/08/08 06:21:32;;;;;;;;;;;;;;;16.18;100.00;97996.06;5084629;28;19990;-78
2023/08/08 06:23:58;;;;;;;;;;;;;;;16.08;100.00;97990.88;5086488;28;19924;-77
2023/08/08 06:26:24;;;;;;;;;;;;;;;16.19;100.00;97995.00;5084688;28;19927;-78
2023/08/08 06:28:52;;;;;;;;;;;;;;;16.27;100.00;97998.09;5066263;28;20033;-79
2023/08/08 06:31:19;;;;;;;;;;;;;;;16.47;100.00;97985.03;5085345;28;19931;-78
2023/08/08 06:33:46;;;;;;;;;;;;;;;16.67;100.00;97984.69;5061935;28;19924;-77
2023/08/08 06:36:12;;;;;;;;;;;;;;;16.56;100.00;97974.38;5086109;28;20376;-77
2023/08/08 06:38:39;;;;;;;;;;;;;;;16.69;100.00;97970.88;5065001;28;19932;-78
2023/08/08 06:41:05;;;;;;;;;;;;;;;16.81;100.00;97979.28;5085605;28;19928;-77
2023/08/08 06:43:32;;;;;;;;;;;;;;;17.10;100.00;97977.03;5083537;28;19939;-77
2023/08/08 06:45:58;;;;;;;;;;;;;;;17.22;100.00;97966.50;5084532;28;19928;-77
2023/08/08 06:48:24;;;;;;;;;;;;;;;17.31;100.00;97963.06;5066108;28;20492;-77
2023/08/08 06:50:52;;;;;;;;;;;;;;;17.51;100.00;97971.53;5080619;28;19932;-77
2023/08/08 06:53:18;;;;;;;;;;;;;;;17.53;100.00;97969.31;5086451;28;19950;-77
2023/08/08 06:55:45;;;;;;;;;;;;;;;17.70;100.00;97974.06;5082388;28;19928;-79
2023/08/08 06:58:11;;;;;;;;;;;;;;;17.80;100.00;97971.09;5084697;28;19928;-78
2023/08/08 07:00:37;;;;;;;;;;;;;;;17.87;100.00;97976.88;5058024;28;19928;-78
2023/08/08 07:03:04;;;;;;;;;;;;;;;18.00;100.00;97975.22;5065423;28;20036;-79
2023/08/08 07:05:30;;;;;;;;;;;;;;;18.25;100.00;97983.47;5083278;28;19928;-78
2023/08/08 07:07:58;;;;;;;;;;;;;;;18.41;100.00;97974.94;5080787;28;19935;-78
2023/08/08 07:10:24;;;;;;;;;;;;;;;18.51;100.00;97970.06;5085707;28;20042;-78
2023/08/08 07:12:51;;;;;;;;;;;;;;;18.61;100.00;97971.72;5082314;28;20353;-79
2023/08/08 07:15:18;;;;;;;;;;;;;;;18.63;100.00;97967.56;5082392;28;19936;-78
2023/08/08 07:17:44;;;;;;;;;;;;;;;18.64;100.00;97968.38;5081038;28;19924;-78
2023/08/08 07:20:13;;;;;;;;;;;;;;;18.63;100.00;97955.97;5085549;28;19967;-79
2023/08/08 07:22:40;;;;;;;;;;;;;;;18.81;100.00;97963.03;5074434;28;20453;-77
2023/08/08 07:25:08;;;;;;;;;;;;;;;18.93;100.00;97965.91;5084261;28;19975;-77
2023/08/08 07:27:34;;;;;;;;;;;;;;;18.98;100.00;97957.63;5062846;28;20397;-78
2023/08/08 07:30:02;;;;;;;;;;;;;;;19.11;100.00;97951.28;5085691;28;19924;-78
2023/08/08 07:32:29;;;;;;;;;;;;;;;18.95;100.00;97955.56;5080183;28;19950;-77
2023/08/08 07:34:55;;;;;;;;;;;;;;;18.94;100.00;97951.25;5083114;28;19924;-78
2023/08/08 07:37:21;;;;;;;;;;;;;;;19.03;100.00;97954.81;5085061;28;20382;-78
2023/08/08 07:39:51;;;;;;;;;;;;;;;19.04;100.00;97950.16;5063614;28;19938;-78
2023/08/08 07:42:19;;;;;;;;;;;;;;;19.15;100.00;97944.16;5084062;28;19928;-78
2023/08/08 07:44:45;;;;;;;;;;;;;;;19.22;100.00;97944.44;5062730;28;19930;-78
2023/08/08 07:47:11;;;;;;;;;;;;;;;19.23;100.00;97948.75;5084863;28;19924;-78
2023/08/08 07:49:37;;;;;;;;;;;;;;;19.09;100.00;97931.88;5071669;28;20409;-79
2023/08/08 07:52:04;;;;;;;;;;;;;;;18.98;100.00;97946.81;5085009;28;20401;-77
2023/08/08 07:54:30;;;;;;;;;;;;;;;19.05;100.00;97944.44;5084619;28;20403;-77
2023/08/08 07:56:57;;;;;;;;;;;;;;;18.94;100.00;97955.91;5063586;28;19924;-78
2023/08/08 07:59:24;;;;;;;;;;;;;;;18.80;100.00;97950.59;5083908;28;19928;-79
2023/08/08 08:01:51;;;;;;;;;;;;;;;18.88;100.00;97952.50;5062688;28;20015;-78
2023/08/08 08:04:17;;;;;;;;;;;;;;;18.85;100.00;97956.66;5065423;28;19959;-77
2023/08/08 08:06:43;;;;;;;;;;;;;;;18.59;100.00;97952.31;5079952;28;19970;-78
2023/08/08 08:09:10;;;;;;;;;;;;;;;18.56;100.00;97952.94;5064377;28;19950;-79
2023/08/08 08:11:36;;;;;;;;;;;;;;;18.52;100.00;97944.63;5084668;28;19957;-78
2023/08/08 08:14:03;;;;;;;;;;;;;;;18.51;100.00;97942.22;5081426;28;20282;-78
2023/08/08 08:16:32;;;;;;;;;;;;;;;18.45;100.00;97943.44;5081900;28;19935;-79
2023/08/08 08:18:58;;;;;;;;;;;;;;;18.48;100.00;97938.22;5084596;28;19924;-78
2023/08/08 08:21:24;;;;;;;;;;;;;;;18.34;100.00;97940.25;5086962;28;19939;-77
2023/08/08 08:23:51;;;;;;;;;;;;;;;18.31;100.00;97944.38;5054020;28;20306;-78
2023/08/08 08:26:17;;;;;;;;;;;;;;;18.27;100.00;97939.91;5088266;28;20629;-77
2023/08/08 08:28:43;;;;;;;;;;;;;;;18.32;100.00;97940.53;5085335;28;19934;-80
2023/08/08 08:31:10;;;;;;;;;;;;;;;18.28;100.00;97934.19;5089202;28;19928;-77
2023/08/08 08:33:37;;;;;;;;;;;;;;;18.16;100.00;97931.28;5081336;28;19928;-78
2023/08/08 08:36:04;;;;;;;;;;;;;;;18.22;100.00;97940.03;5089300;28;20338;-79
2023/08/08 08:38:30;;;;;;;;;;;;;;;18.19;100.00;97929.84;5068200;28;19935;-78
2023/08/08 08:40:57;;;;;;;;;;;;;;;18.17;100.00;97935.56;5086967;28;20382;-78
2023/08/08 08:43:23;;;;;;;;;;;;;;;18.31;100.00;97935.47;5068687;28;20036;-79
2023/08/08 08:45:52;;;;;;;;;;;;;;;18.33;100.00;97931.34;5085395;28;19928;-77
2023/08/08 08:48:19;;;;;;;;;;;;;;;18.17;100.00;97927.44;5087137;28;20020;-77
2023/08/08 08:50:48;;;;;;;;;;;;;;;18.40;100.00;97925.47;5081447;28;19931;-79
2023/08/08 08:53:15;;;;;;;;;;;;;;;18.49;100.00;97922.78;5087994;28;19977;-79
2023/08/08 08:55:42;;;;;;;;;;;;;;;18.71;100.00;97920.03;5084406;28;20410;-79
2023/08/08 08:58:08;;;;;;;;;;;;;;;18.76;100.00;97923.38;5086932;28;19924;-78
2023/08/08 09:00:35;;;;;;;;;;;;;;;18.92;100.00;97907.47;5084495;28;20436;-78
2023/08/08 09:03:02;;;;;;;;;;;;;;;19.13;100.00;97911.16;5085373;28;19934;-80
2023/08/08 09:05:29;;;;;;;;;;;;;;;19.17;100.00;97901.28;5085479;28;20002;-79
2023/08/08 09:07:56;;;;;;;;;;;;;;;19.36;100.00;97903.69;5082352;28;19928;-79
2023/08/08 09:10:25;;;;;;;;;;;;;;;19.63;100.00;97908.78;5087539;28;19934;-77
2023/08/08 09:12:51;;;;;;;;;;;;;;;19.62;100.00;97909.88;5084030;28;20267;-78
2023/08/08 09:15:17;;;;;;;;;;;;;;;19.64;100.00;97893.31;5084330;28;20415;-81
2023/08/08 09:17:45;;;;;;;;;;;;;;;19.79;100.00;97895.50;5082783;28;20031;-78
2023/08/08 09:20:12;;;;;;;;;;;;;;;19.89;100.00;97906.00;5085426;28;19932;-78
2023/08/08 09:22:38;;;;;;;;;;;;;;;19.98;100.00;97897.84;5076096;28;19931;-78
2023/08/08 09:25:07;;;;;;;;;;;;;;;20.00;100.00;97901.81;5085954;28;19946;-78
2023/08/08 09:27:34;;;;;;;;;;;;;;;19.80;100.00;97897.13;5083229;28;19928;-78
2023/08/08 09:30:00;;;;;;;;;;;;;;;19.72;100.00;97887.88;5072627;28;20390;-79
2023/08/08 09:32:29;;;;;;;;;;;;;;;19.83;100.00;97891.84;5082094;28;19928;-78
2023/08/08 09:34:56;;;;;;;;;;;;;;;20.01;100.00;97892.56;5084734;28;20429;-79
2023/08/08 09:37:23;;;;;;;;;;;;;;;20.00;100.00;97890.19;5087324;28;19931;-79
2023/08/08 09:39:56;;;;;;;;;;;;;;;20.02;100.00;97885.25;5065627;28;20040;-78
2023/08/08 09:42:24;;;;;;;;;;;;;;;20.13;100.00;97878.34;5086308;28;20039;-78
2023/08/08 09:44:51;;;;;;;;;;;;;;;20.07;100.00;97872.31;5064985;28;20520;-78
2023/08/08 09:47:17;;;;;;;;;;;;;;;20.28;100.00;97875.91;5087051;28;19924;-78
2023/08/08 09:49:45;;;;;;;;;;;;;;;20.16;100.00;97878.47;5082006;28;19932;-78
2023/08/08 09:52:11;;;;;;;;;;;;;;;20.11;100.00;97867.84;5084552;28;19931;-79
2023/08/08 09:54:39;;;;;;;;;;;;;;;20.04;100.00;97859.41;5078702;28;19928;-78
2023/08/08 09:57:06;;;;;;;;;;;;;;;20.07;100.00;97866.88;5083738;28;20454;-78
2023/08/08 09:59:34;;;;;;;;;;;;;;;20.03;100.00;97859.72;5085881;28;19932;-79
2023/08/08 10:02:01;;;;;;;;;;;;;;;19.84;100.00;97854.69;5082909;28;20672;-78
2023/08/08 10:04:27;;;;;;;;;;;;;;;19.89;100.00;97859.94;5084989;28;19940;-78
2023/08/08 10:06:54;;;;;;;;;;;;;;;19.84;100.00;97857.38;5081971;28;19970;-79
2023/08/08 10:09:21;;;;;;;;;;;;;;;19.94;100.00;97859.75;5083891;28;19924;-80
2023/08/08 10:11:48;;;;;;;;;;;;;;;19.72;100.00;97851.84;5086874;28;19936;-78
2023/08/08 10:14:15;;;;;;;;;;;;;;;19.79;100.00;97857.56;5082734;28;19928;-79
2023/08/08 10:16:44;;;;;;;;;;;;;;;19.89;100.00;97852.59;5083743;28;20020;-78
2023/08/08 10:19:11;;;;;;;;;;;;;;;20.15;100.00;97851.69;5063957;28;19931;-79
2023/08/08 10:21:38;;;;;;;;;;;;;;;20.32;100.00;97848.94;5084473;28;20409;-80
2023/08/08 10:24:06;;;;;;;;;;;;;;;20.26;100.00;97859.19;5063133;28;19938;-80
2023/08/08 10:26:33;;;;;;;;;;;;;;;20.22;100.00;97847.34;5083716;28;19932;-78
2023/08/08 10:29:00;;;;;;;;;;;;;;;20.20;100.00;97846.09;5085139;28;19927;-80
2023/08/08 10:31:27;;;;;;;;;;;;;;;20.39;100.00;97850.00;5084121;28;19951;-79
2023/08/08 10:34:03;;;;;;;;;;;;;;;20.44;100.00;97838.97;5080905;28;19928;-79
2023/08/08 10:36:43;;;;;;;;;;;;;;;20.33;100.00;97845.88;5086076;28;19928;-78
2023/08/08 10:39:11;;;;;;;;;;;;;;;20.17;100.00;97835.91;5082064;28;19924;-78
2023/08/08 10:41:45;;;;;;;;;;;;;;;20.33;97.29;97834.25;5068017;28;19935;-78
2023/08/08 10:44:11;;;;;;;;;;;;;;;20.60;92.29;97835.69;5081692;28;19928;-79
2023/08/08 10:46:41;;;;;;;;;;;;;;;20.64;91.66;97826.53;5079890;28;19928;-78
2023/08/08 10:49:08;;;;;;;;;;;;;;;20.83;89.06;97826.88;5080624;28;20042;-78
2023/08/08 10:51:37;;;;;;;;;;;;;;;20.60;94.75;97828.34;5083170;28;19928;-78
2023/08/08 10:54:06;;;;;;;;;;;;;;;20.60;94.78;97831.06;5085817;28;19924;-78
2023/08/08 10:56:33;;;;;;;;;;;;;;;20.67;92.83;97823.19;5082381;28;20026;-80
2023/08/08 10:58:59;;;;;;;;;;;;;;;20.75;92.19;97832.38;5084820;28;19956;-80
2023/08/08 11:01:26;;;;;;;;;;;;;;;20.52;92.63;97828.41;5081212;28;20639;-78
2023/08/08 11:03:53;;;;;;;;;;;;;;;20.61;86.88;97829.91;5083830;28;20032;-79
2023/08/08 11:06:21;;;;;;;;;;;;;;;20.66;86.82;97834.34;5062075;28;19955;-77
2023/08/08 11:08:47;;;;;;;;;;;;;;;20.79;87.30;97833.31;5083070;28;19924;-78
2023/08/08 11:11:14;;;;;;;;;;;;;;;20.60;90.45;97824.81;5085531;28;20027;-79
2023/08/08 11:13:40;;;;;;;;;;;;;;;20.63;90.20;97822.25;5081961;28;20015;-78
2023/08/08 11:16:06;;;;;;;;;;;;;;;20.60;88.34;97819.41;5063749;28;20012;-79
2023/08/08 11:18:33;;;;;;;;;;;;;;;20.79;88.46;97817.03;5080642;28;20001;-79
2023/08/08 11:20:59;;;;;;;;;;;;;;;20.86;87.63;97814.56;5083320;28;19924;-78
2023/08/08 11:23:27;;;;;;;;;;;;;;;21.01;87.22;97812.03;5079658;28;19932;-78
2023/08/08 11:25:53;;;;;;;;;;;;;;;20.91;88.67;97817.09;5066887;28;19924;-79
2023/08/08 11:28:19;;;;;;;;;;;;;;;20.89;89.42;97820.13;5080818;28;20015;-78
2023/08/08 11:30:46;;;;;;;;;;;;;;;21.01;88.29;97813.97;5084797;28;20394;-79
2023/08/08 11:33:14;;;;;;;;;;;;;;;20.99;88.63;97818.91;5080150;28;19928;-78
2023/08/08 11:35:45;;;;;;;;;;;;;;;20.85;85.81;97805.66;5059378;28;20083;-79
2023/08/08 11:38:12;;;;;;;;;;;;;;;20.63;92.96;97814.09;5057509;28;19978;-81
2023/08/08 11:40:40;;;;;;;;;;;;;;;20.61;92.42;97804.72;5082386;28;19939;-77
2023/08/08 11:43:07;;;;;;;;;;;;;;;20.61;92.91;97799.28;5079005;28;19953;-79
2023/08/08 11:45:33;;;;;;;;;;;;;;;20.65;93.15;97805.63;5077416;28;19924;-83
2023/08/08 11:48:00;;;;;;;;;;;;;;;20.85;91.61;97799.41;5078265;28;19924;-78
2023/08/08 11:50:28;;;;;;;;;;;;;;;20.87;91.20;97805.28;5083745;28;19924;-77
2023/08/08 11:52:55;;;;;;;;;;;;;;;20.79;91.89;97803.47;5076201;28;20042;-78
2023/08/08 11:55:23;;;;;;;;;;;;;;;20.62;91.85;97792.72;5059351;28;19934;-78
2023/08/08 11:57:53;;;;;;;;;;;;;;;20.76;91.62;97804.91;5055128;28;19928;-78
2023/08/08 12:00:19;;;;;;;;;;;;;;;20.97;90.07;97802.97;5060111;28;20402;-77
2023/08/08 12:02:46;;;;;;;;;;;;;;;20.82;89.22;97795.44;5076936;28;19928;-77
2023/08/08 12:05:16;;;;;;;;;;;;;;;21.11;79.19;97797.28;5053872;28;19924;-77
2023/08/08 12:07:45;;;;;;;;;;;;;;;21.30;82.12;97802.22;5082879;28;20345;-78
2023/08/08 12:10:16;;;;;;;;;;;;;;;21.33;78.11;97796.91;5082793;28;19924;-78
2023/08/08 12:12:43;;;;;;;;;;;;;;;21.06;83.79;97792.03;5058458;28;19928;-77
2023/08/08 12:15:11;;;;;;;;;;;;;;;20.96;83.16;97798.66;5075863;28;20574;-77
2023/08/08 12:17:38;;;;;;;;;;;;;;;21.18;77.67;97800.25;5072855;28;19928;-77
2023/08/08 12:20:05;;;;;;;;;;;;;;;21.24;75.10;97803.56;5073707;28;19971;-78
2023/08/08 12:22:32;;;;;;;;;;;;;;;21.03;77.69;97792.72;5082432;28;19924;-78
2023/08/08 12:24:58;;;;;;;;;;;;;;;20.86;80.57;97790.13;5078054;28;20433;-76
2023/08/08 12:27:24;;;;;;;;;;;;;;;21.25;73.63;97797.00;5077413;28;19928;-76
2023/08/08 12:29:51;;;;;;;;;;;;;;;20.93;77.27;97793.91;5077519;28;19924;-77
2023/08/08 12:32:19;;;;;;;;;;;;;;;21.14;72.93;97790.38;5075678;28;19928;-76
2023/08/08 12:34:46;;;;;;;;;;;;;;;21.43;67.13;97796.50;5081643;28;20382;-78
2023/08/08 12:37:12;;;;;;;;;;;;;;;21.04;68.73;97778.00;5075821;28;19925;-77